Latest Coastal Weather Observations for Kingfish B

IDV60701

Issued at 5:51 am EDT Monday 20 January 2020 (issued every 10 minutes, with the page automatically refreshed every 10 minutes)

About coastal observations | Map of coastal stations | Coastal observations for VIC | Marine services | Other Formats
Station Details ID: 400139 Name: KINGFISH B (PLATFORM) Lat: -38.60 Lon: 148.19 Height: 31.4 m
Data from the previous 72 hours. | See also: Recent months for locations in Victoria
Date/Time
EDT
Wind Sea
Height
m
Swell Vis
km
Cloud Weather Temp
°C
Press
hPa
Rain since
9am
mm
Dir  Spd
kts
Gust
kts
Height
m
Period
s
Dir
20/05:50am SE 21 23 - - - - - - - 18.0 1004.2 -
20/05:40am SE 21 24 - - - - - - - 18.0 1004.1 -
20/05:30am SE 22 24 - - - - - - - 18.0 1004.1 -
20/05:20am SE 20 23 - - - - - - - 18.0 1004.2 -
20/05:00am SE 19 21 - - - - - - - 18.0 1004.5 -
20/04:00am SE 18 20 - - - - - - - 18.1 1005.4 -
20/03:20am SE 17 19 - - - - - - - 18.0 1006.1 -
20/03:00am ESE 18 20 - - - - - - - 18.1 1006.3 -
 
Date/Time
EDT
Wind Sea
Height
m
Swell Vis
km
Cloud Weather Temp
°C
Press
hPa
Rain since
9am
mm
Dir  Spd
kts
Gust
kts
Height
m
Period
s
Dir
19/10:20pm ESE 17 20 - - - - - - - 18.4 1007.8 -
19/07:40pm ESE 21 24 - - - - - - - 18.6 1005.7 -
19/06:00pm ESE 19 21 - - - - - - - 18.7 1006.0 -
19/05:50pm ESE 20 22 - - - - - - - 18.7 1006.0 -
19/05:40pm ESE 20 22 - - - - - - - 18.7 1006.0 -
19/05:30pm ESE 21 23 - - - - - - - 18.8 1006.0 -
19/05:10pm ESE 21 24 - - - - - - - 18.7 1005.9 -
19/05:00pm ESE 21 24 - - - - - - - 18.7 1005.9 -
19/04:50pm ESE 21 24 - - - - - - - 18.7 1005.9 -
19/04:40pm ESE 21 25 - - - - - - - 18.7 1005.7 -
19/04:30pm E 21 26 - - - - - - - 18.7 1005.7 -
19/04:20pm E 21 27 - - - - - - - 18.7 1005.9 -
19/04:10pm E 21 25 - - - - - - - 18.7 1006.2 -
19/04:00pm E 22 25 - - - - - - - 18.8 1006.2 -
19/03:50pm E 23 25 - - - - - - - 18.8 1006.3 -
19/03:40pm E 22 25 - - - - - - - 18.9 1006.5 -
19/03:30pm E 22 24 - - - - - - - 18.9 1006.5 -
19/03:20pm ESE 21 24 - - - - - - - 18.8 1006.6 -
19/03:10pm E 21 23 - - - - - - - 18.9 1006.7 -
19/03:00pm E 21 23 - - - - - - - 18.9 1006.7 -
19/02:50pm E 22 24 - - - - - - - 18.9 1006.7 -
19/02:30pm E 20 23 - - - - - - - 18.9 1007.1 -
19/02:10pm E 20 23 - - - - - - - 18.9 1007.4 -
19/02:00pm E 21 25 - - - - - - - 18.9 1007.5 -
19/01:50pm E 21 23 - - - - - - - 18.9 1007.5 -
19/01:40pm E 21 24 - - - - - - - 18.9 1007.6 -
19/01:30pm E 21 26 - - - - - - - 18.9 1007.7 -
19/01:20pm E 22 26 - - - - - - - 18.9 1007.6 -
19/01:10pm E 23 26 - - - - - - - 19.1 1007.6 -
19/01:00pm E 22 25 - - - - - - - 19.0 1007.7 -
19/12:50pm E 22 25 - - - - - - - 19.1 1007.9 -
19/12:40pm E 21 24 - - - - - - - 19.1 1008.0 -
19/12:30pm E 20 23 - - - - - - - 19.0 1008.1 -
19/12:20pm E 21 25 - - - - - - - 18.9 1008.1 -
19/12:10pm E 21 24 - - - - - - - 18.8 1008.0 -
19/12:00pm E 24 27 - - - - - - - 18.7 1007.8 -
19/11:50am E 26 29 - - - - - - - 18.7 1007.6 -
19/11:40am E 26 30 - - - - - - - 18.6 1007.7 -
19/11:30am E 25 27 - - - - - - - 18.6 1007.8 -
19/11:20am E 26 31 - - - - - - - 18.7 1007.8 -
19/11:10am E 25 29 - - - - - - - 18.6 1008.0 -
19/11:00am E 24 28 - - - - - - - 18.5 1008.1 -
19/10:50am E 19 25 - - - - - - - 18.6 1008.5 -
19/10:40am E 20 25 - - - - - - - 18.6 1008.7 -
19/10:30am E 22 26 - - - - - - - 18.4 1008.6 -
19/10:20am E 23 27 - - - - - - - 18.4 1008.5 -
19/09:50am E 20 24 - - - - - - - 18.5 1008.8 -
19/09:40am E 22 26 - - - - - - - 18.5 1008.6 -
19/09:30am E 21 25 - - - - - - - 18.4 1008.6 -
19/09:00am E 20 23 - - - - - - - 18.2 1008.4 -
19/08:00am E 16 20 - - - - - - - 18.1 1008.4 -
19/07:30am E 22 25 - - - - - - - 18.0 1007.7 -
19/07:00am E 23 26 - - - - - - - 18.1 1007.5 -
19/06:50am E 23 27 - - - - - - - 18.1 1007.5 -
19/06:40am E 25 28 - - - - - - - 18.1 1007.3 -
19/06:30am E 24 28 - - - - - - - 18.1 1007.3 -
19/06:20am E 24 28 - - - - - - - 18.1 1007.3 -
19/06:10am E 26 30 - - - - - - - 18.1 1007.1 -
19/06:00am E 26 30 - - - - - - - 18.1 1007.2 -
19/05:50am E 25 29 - - - - - - - 18.1 1007.2 -
19/05:30am E 25 28 - - - - - - - 18.0 1007.3 -
19/05:20am E 26 30 - - - - - - - 18.0 1007.2 -
19/05:10am E 25 29 - - - - - - - 18.0 1007.2 -
19/04:50am E 27 30 - - - - - - - 18.0 1007.3 -
19/04:40am E 26 30 - - - - - - - 17.9 1007.5 -
19/04:30am E 25 29 - - - - - - - 17.9 1007.7 -
19/04:20am E 26 30 - - - - - - - 17.9 1007.7 -
19/04:10am E 25 29 - - - - - - - 17.9 1007.9 -
19/04:00am E 26 30 - - - - - - - 17.9 1007.8 -
19/03:50am E 25 29 - - - - - - - 17.9 1008.0 -
19/03:10am E 26 31 - - - - - - - 17.9 1008.2 -
19/03:00am E 24 29 - - - - - - - 18.0 1008.4 -
19/02:50am E 25 30 - - - - - - - 18.0 1008.5 -
19/02:40am E 25 30 - - - - - - - 18.1 1008.6 -
19/02:30am E 25 29 - - - - - - - 18.1 1008.7 -
19/02:20am E 25 29 - - - - - - - 18.2 1008.7 -
19/02:00am E 29 33 - - - - - - - 18.1 1008.3 -
19/01:40am E 26 31 - - - - - - - 18.2 1008.9 -
19/01:20am E 25 29 - - - - - - - 18.2 1009.5 -
19/01:10am E 24 28 - - - - - - - 18.3 1009.8 -
19/01:00am E 24 27 - - - - - - - 18.3 1010.0 -
19/12:50am E 25 28 - - - - - - - 18.2 1010.1 -
19/12:40am E 26 30 - - - - - - - 18.3 1010.0 -
19/12:30am E 25 28 - - - - - - - 18.3 1010.3 -
19/12:20am E 23 27 - - - - - - - 18.3 1010.6 -
19/12:10am E 23 26 - - - - - - - 18.3 1010.5 -
 
Date/Time
EDT
Wind Sea
Height
m
Swell Vis
km
Cloud Weather Temp
°C
Press
hPa
Rain since
9am
mm
Dir  Spd
kts
Gust
kts
Height
m
Period
s
Dir
18/11:50pm E 25 29 - - - - - - - 18.3 1010.6 -
18/11:40pm E 23 27 - - - - - - - 18.3 1010.8 -
18/11:30pm E 25 28 - - - - - - - 18.2 1010.6 -
18/11:20pm E 25 29 - - - - - - - 18.2 1010.5 -
18/11:10pm E 24 28 - - - - - - - 18.2 1010.5 -
18/11:00pm E 25 29 - - - - - - - 18.2 1010.4 -
18/10:40pm E 26 31 - - - - - - - 18.2 1010.5 -
18/10:30pm E 26 30 - - - - - - - 18.2 1010.3 -
18/10:20pm E 26 31 - - - - - - - 18.3 1010.0 -
18/10:00pm E 26 31 - - - - - - - 18.3 1010.1 -
18/09:50pm E 24 29 - - - - - - - 18.3 1010.3 -
18/09:40pm E 26 31 - - - - - - - 18.2 1010.2 -
18/09:30pm E 26 30 - - - - - - - 18.2 1010.2 -
18/09:20pm E 25 29 - - - - - - - 18.2 1010.1 -
18/09:10pm E 25 31 - - - - - - - 18.2 1009.9 -
18/09:00pm E 25 29 - - - - - - - 18.2 1009.7 -
18/08:50pm E 26 30 - - - - - - - 18.3 1009.7 -
18/08:30pm E 23 28 - - - - - - - 18.3 1010.2 -
18/08:20pm E 24 28 - - - - - - - 18.3 1010.2 -
18/08:10pm E 25 29 - - - - - - - 18.2 1010.0 -
18/08:00pm E 24 30 - - - - - - - 18.2 1009.9 -
18/07:50pm E 25 29 - - - - - - - 18.2 1010.1 -
18/07:40pm E 24 28 - - - - - - - 18.1 1010.2 -
18/07:30pm E 23 26 - - - - - - - 18.1 1010.2 -
18/07:20pm E 22 26 - - - - - - - 18.1 1010.1 -
18/07:10pm E 23 29 - - - - - - - 18.1 1009.9 -
18/07:00pm E 25 30 - - - - - - - 18.1 1009.9 -
18/06:50pm E 24 29 - - - - - - - 18.0 1010.1 -
18/06:40pm E 24 29 - - - - - - - 18.1 1010.4 -
18/06:30pm E 24 28 - - - - - - - 18.1 1010.4 -
18/06:20pm E 26 30 - - - - - - - 18.1 1010.3 -
18/06:10pm E 24 29 - - - - - - - 18.0 1010.5 -
18/06:00pm E 25 30 - - - - - - - 18.0 1010.4 -
18/05:50pm E 25 30 - - - - - - - 18.0 1010.5 -
18/05:40pm E 26 30 - - - - - - - 18.0 1010.6 -
18/05:30pm E 26 30 - - - - - - - 17.9 1010.6 -
18/05:20pm E 26 31 - - - - - - - 18.0 1010.6 -
18/05:10pm E 26 30 - - - - - - - 17.9 1010.7 -
18/05:00pm E 27 31 - - - - - - - 17.8 1010.7 -
18/04:50pm E 26 30 - - - - - - - 17.8 1010.7 -
18/04:40pm E 27 32 - - - - - - - 17.9 1010.8 -
18/04:30pm E 27 30 - - - - - - - 17.8 1010.8 -
18/04:10pm E 26 29 - - - - - - - 17.9 1011.1 -
18/04:00pm E 27 30 - - - - - - - 17.9 1011.3 -
18/03:50pm E 25 29 - - - - - - - 17.9 1011.4 -
18/03:40pm E 25 28 - - - - - - - 17.9 1011.5 -
18/03:30pm E 24 28 - - - - - - - 17.8 1011.7 -
18/03:20pm E 24 27 - - - - - - - 17.8 1011.8 -
18/03:10pm E 23 26 - - - - - - - 17.8 1012.0 -
18/03:00pm E 24 28 - - - - - - - 17.8 1012.1 -
18/02:50pm E 26 28 - - - - - - - 17.8 1012.2 -
18/02:10pm E 23 27 - - - - - - - 17.6 1012.8 -
18/02:00pm E 24 27 - - - - - - - 17.6 1012.9 -
18/01:50pm E 23 27 - - - - - - - 17.6 1013.0 -
18/01:10pm E 23 27 - - - - - - - 17.7 1013.3 -
18/01:00pm E 22 26 - - - - - - - 17.6 1013.4 -
18/12:40pm E 23 26 - - - - - - - 17.5 1013.7 -
18/12:30pm E 23 27 - - - - - - - 17.5 1013.7 -
18/12:20pm E 21 26 - - - - - - - 17.4 1013.8 -
18/12:10pm E 23 26 - - - - - - - 17.3 1013.8 -
18/11:30am E 21 24 - - - - - - - 17.1 1013.9 -
18/11:20am E 21 25 - - - - - - - 17.1 1014.0 -
18/11:10am E 21 25 - - - - - - - 17.1 1014.1 -
18/11:00am E 23 26 - - - - - - - 17.1 1014.0 -
18/10:50am E 23 27 - - - - - - - 17.0 1014.0 -
18/10:40am E 24 28 - - - - - - - 16.9 1014.0 -
18/10:30am E 23 27 - - - - - - - 17.0 1014.1 -
18/09:50am E 20 23 - - - - - - - 16.9 1014.5 -
18/09:40am E 21 24 - - - - - - - 16.9 1014.5 -
18/09:30am E 22 25 - - - - - - - 16.9 1014.4 -
18/08:50am E 20 25 - - - - - - - 16.9 1014.1 -
18/08:20am E 21 26 - - - - - - - 16.8 1013.8 -
18/08:10am E 20 25 - - - - - - - 16.8 1013.6 -
18/08:00am E 22 25 - - - - - - - 16.8 1013.5 -
18/07:50am E 22 26 - - - - - - - 16.8 1013.4 -
18/07:40am E 22 26 - - - - - - - 16.8 1013.4 -
18/07:30am E 23 26 - - - - - - - 16.8 1013.3 -
18/07:10am E 24 27 - - - - - - - 16.7 1013.2 -
18/07:00am E 23 27 - - - - - - - 16.7 1013.1 -
18/06:50am E 23 27 - - - - - - - 16.8 1013.0 -
18/06:40am E 25 28 - - - - - - - 16.7 1013.0 -
18/06:30am E 24 27 - - - - - - - 16.7 1012.9 -
18/06:10am E 25 28 - - - - - - - 16.7 1012.9 -
18/06:00am E 24 28 - - - - - - - 16.7 1013.0 -
18/05:50am E 24 27 - - - - - - - 16.8 1013.1 -
18/05:20am E 24 27 - - - - - - - 16.8 1013.3 -
18/05:10am E 24 27 - - - - - - - 16.7 1013.4 -
18/04:50am E 23 26 - - - - - - - 16.8 1013.6 -
18/04:40am E 22 26 - - - - - - - 16.8 1013.7 -
18/04:30am E 22 26 - - - - - - - 16.9 1013.7 -
18/04:10am E 22 26 - - - - - - - 16.8 1013.9 -
18/04:00am E 22 26 - - - - - - - 16.9 1014.1 -
18/03:30am E 21 25 - - - - - - - 16.8 1014.4 -
18/03:20am E 21 25 - - - - - - - 16.9 1014.5 -
18/03:10am E 21 25 - - - - - - - 16.8 1014.7 -
18/03:00am E 19 24 - - - - - - - 16.9 1014.8 -
18/02:50am E 20 23 - - - - - - - 16.9 1014.9 -
18/02:40am E 20 24 - - - - - - - 16.8 1014.9 -
18/02:30am E 21 24 - - - - - - - 16.8 1015.1 -
18/02:20am E 21 24 - - - - - - - 16.8 1015.3 -
18/02:00am E 21 25 - - - - - - - 16.9 1015.5 -
18/01:40am E 22 24 - - - - - - - 16.9 1015.6 -
18/01:30am E 22 25 - - - - - - - 16.9 1015.6 -
18/01:20am E 23 26 - - - - - - - 16.9 1015.6 -
18/01:10am E 22 25 - - - - - - - 16.9 1015.7 -
18/01:00am E 23 25 - - - - - - - 16.9 1015.7 -
18/12:50am E 23 26 - - - - - - - 16.9 1015.6 -
18/12:40am E 23 26 - - - - - - - 17.0 1015.6 -
18/12:30am E 23 27 - - - - - - - 17.0 1015.7 -
18/12:20am E 22 25 - - - - - - - 17.0 1015.9 -
18/12:10am E 22 25 - - - - - - - 17.0 1016.0 -
18/12:00am E 21 24 - - - - - - - 17.0 1016.2 -
 
Date/Time
EDT
Wind Sea
Height
m
Swell Vis
km
Cloud Weather Temp
°C
Press
hPa
Rain since
9am
mm
Dir  Spd
kts
Gust
kts
Height
m
Period
s
Dir
17/11:50pm E 20 25 - - - - - - - 17.1 1016.2 -
17/11:40pm E 20 24 - - - - - - - 17.1 1016.2 -
17/11:30pm E 21 25 - - - - - - - 17.0 1016.1 -
17/11:20pm E 20 23 - - - - - - - 17.0 1016.1 -
17/11:10pm E 22 24 - - - - - - - 17.0 1016.0 -
17/11:00pm E 21 24 - - - - - - - 17.0 1016.1 -
17/10:50pm E 22 26 - - - - - - - 17.0 1016.1 -
17/10:40pm E 21 25 - - - - - - - 17.0 1016.1 -
17/10:30pm ESE 21 26 - - - - - - - 17.0 1016.0 -
17/10:20pm ESE 21 26 - - - - - - - 17.0 1015.9 -
17/10:10pm E 21 23 - - - - - - - 17.0 1015.8 -
17/10:00pm E 20 23 - - - - - - - 17.0 1015.9 -
17/09:50pm E 19 23 - - - - - - - 17.1 1015.9 -
17/09:40pm E 20 23 - - - - - - - 17.1 1015.8 -
17/09:30pm E 20 23 - - - - - - - 17.1 1015.6 -
17/09:20pm E 21 23 - - - - - - - 17.0 1015.5 -
17/09:10pm E 20 23 - - - - - - - 17.1 1015.5 -
17/09:00pm E 21 25 - - - - - - - 17.0 1015.3 -
17/08:50pm E 21 26 - - - - - - - 17.1 1015.2 -
17/08:40pm ESE 20 25 - - - - - - - 17.1 1015.2 -
17/08:30pm E 20 25 - - - - - - - 17.1 1015.3 -
17/08:20pm E 21 24 - - - - - - - 17.1 1015.2 -
17/08:10pm E 22 25 - - - - - - - 17.1 1015.1 -
17/08:00pm E 22 25 - - - - - - - 17.1 1015.1 -
17/07:50pm E 22 25 - - - - - - - 17.1 1015.1 -
17/07:40pm E 22 25 - - - - - - - 17.1 1015.0 -
17/07:30pm E 22 25 - - - - - - - 17.1 1015.0 -
17/07:10pm ESE 22 25 - - - - - - - 17.1 1014.8 -
17/07:00pm E 21 25 - - - - - - - 17.2 1014.8 -
17/06:50pm ESE 22 25 - - - - - - - 17.1 1014.8 -
17/06:40pm ESE 22 25 - - - - - - - 17.1 1014.8 -
17/06:30pm ESE 21 25 - - - - - - - 17.1 1014.8 -
17/06:20pm ESE 21 25 - - - - - - - 17.1 1014.8 -
17/06:00pm ESE 21 25 - - - - - - - 17.1 1014.8 -
17/05:50pm ESE 22 25 - - - - - - - 17.1 1014.9 -
17/05:20pm ESE 23 26 - - - - - - - 17.2 1014.8 -
17/05:00pm ESE 22 25 - - - - - - - 17.2 1014.9 -
17/04:50pm ESE 22 26 - - - - - - - 17.1 1014.9 -
17/04:40pm ESE 23 26 - - - - - - - 17.2 1014.9 -
17/04:30pm ESE 22 26 - - - - - - - 17.2 1014.9 -
17/03:50pm ESE 22 25 - - - - - - - 17.3 1014.9 -
17/01:20pm E 19 23 - - - - - - - 17.5 1015.2 -
17/01:00pm E 18 22 - - - - - - - 17.5 1015.2 -
17/12:50pm E 19 22 - - - - - - - 17.5 1015.2 -
17/12:40pm ESE 20 22 - - - - - - - 17.4 1015.1 -
17/12:30pm ESE 21 23 - - - - - - - 17.4 1015.0 -
17/12:10pm ESE 20 24 - - - - - - - 17.3 1015.0 -
17/12:00pm ESE 19 23 - - - - - - - 17.3 1015.0 -
17/11:50am ESE 20 22 - - - - - - - 17.3 1015.1 -
17/11:40am E 19 23 - - - - - - - 17.3 1015.0 -
17/11:10am ESE 22 26 - - - - - - - 17.2 1014.7 -
17/11:00am ESE 22 25 - - - - - - - 17.2 1014.5 -
17/10:50am ESE 22 26 - - - - - - - 17.2 1014.4 -
17/10:40am ESE 22 25 - - - - - - - 17.2 1014.3 -
17/10:30am ESE 22 26 - - - - - - - 17.2 1014.2 -
17/10:10am ESE 25 28 - - - - - - - 17.0 1014.0 -
17/10:00am ESE 24 28 - - - - - - - 17.0 1013.9 -
17/09:50am ESE 24 29 - - - - - - - 17.1 1013.8 -
17/09:40am ESE 23 28 - - - - - - - 17.2 1013.7 -
17/09:30am ESE 22 27 - - - - - - - 17.2 1013.5 -
17/09:20am ESE 22 26 - - - - - - - 17.2 1013.5 -
17/09:10am ESE 23 26 - - - - - - - 17.1 1013.4 -
17/09:00am ESE 23 26 - - - - - - - 17.1 1013.3 -
17/08:10am ESE 22 27 - - - - - - - 17.1 1012.9 -
17/08:00am ESE 22 26 - - - - - - - 17.2 1012.9 -
17/07:50am ESE 22 25 - - - - - - - 17.1 1013.0 -
17/07:40am ESE 22 26 - - - - - - - 17.0 1012.9 -
17/07:10am ESE 23 26 - - - - - - - 17.1 1012.5 -
17/07:00am ESE 23 27 - - - - - - - 17.0 1012.3 -
17/06:50am ESE 24 28 - - - - - - - 17.0 1012.3 -
17/06:40am ESE 24 26 - - - - - - - 17.0 1012.2 -
17/06:20am ESE 24 27 - - - - - - - 17.0 1011.9 -
17/06:10am ESE 23 26 - - - - - - - 17.0 1011.8 -
17/06:00am ESE 24 27 - - - - - - - 17.0 1011.7 -

Other formats

Comma delimited format used in spreadsheet applications
http://www.bom.gov.au/fwo/IDV60701/IDV60701.55039.axf

JavaScript Object Notation format (JSON) in row-major order
http://www.bom.gov.au/fwo/IDV60701/IDV60701.55039.json

Data quality

Most of these data are generated automatically and are frequently updated. Quality checks on data are not normally performed. It is possible for incorrect values to appear. Refer to information at About Latest Weather Observations and please check the disclaimer before using these data.